August 18, 2019
Temp
 
91.5 °F
 
Heat Idx
 
93.4 °F
 
Dew Pt.
 
62.3 °F
 
Humidity
 
38%
 
Pressure
 
1009.7 hPa 
  falling slowly
Wind
 
3.0 mph 
    WNW
Rain
 
0.00 in 
  0.00 in/hr
UV index
 
---  
 
Solar rad.
 
100 W/m²
 
Tonight

Tonight: Patchy fog after midnight.  Otherwise, increasing clouds, with a low around 62. South southwest wind 5 to 10 mph becoming light and variable  in the evening.
Clear then
Patchy Fog
Monday

Monday: Patchy fog before noon.  Otherwise, mostly cloudy through mid morning, then gradual clearing, with a high near 94. Light and variable wind becoming southwest 5 to 10 mph in the afternoon.
Patchy Fog
then Sunny
Lo 62 °F Hi 94 °F
Earthquakes of magnitude 2.5 or greater within 150 miles
Near CityMagnitudeDistance to
Epicenter
Local TimeLink
Searles Valley, CA 2.6 109 mi (175 km) 2019/08/18 15:02:28 map
Searles Valley, CA 3.3 108 mi (174 km) 2019/08/18 11:56:43 map
Coso Junction, CA 3.1 133 mi (214 km) 2019/08/18 11:27:42 map
Coso Junction, CA 2.8 134 mi (215 km) 2019/08/18 09:20:50 map
Coso Junction, CA 2.5 134 mi (215 km) 2019/08/18 09:08:34 map
Little Lake, CA 2.6 122 mi (197 km) 2019/08/18 01:23:59 map
Coso Junction, CA 3.3 134 mi (215 km) 2019/08/18 00:42:25 map
Searles Valley, CA 2.6 109 mi (176 km) 2019/08/17 23:45:48 map
Coso Junction, CA 2.5 134 mi (215 km) 2019/08/17 22:05:47 map
Coso Junction, CA 2.7 133 mi (214 km) 2019/08/17 22:02:42 map
Coso Junction, CA 2.6 134 mi (215 km) 2019/08/17 10:24:09 map
Coso Junction, CA 2.6 134 mi (215 km) 2019/08/17 06:37:49 map
Little Lake, CA 3.1 122 mi (197 km) 2019/08/17 04:55:31 map
Coso Junction, CA 2.5 134 mi (215 km) 2019/08/16 19:10:23 map
Searles Valley, CA 2.8 107 mi (172 km) 2019/08/16 11:14:25 map
Coso Junction, CA 2.5 133 mi (214 km) 2019/08/16 09:35:53 map
Searles Valley, CA 2.5 107 mi (173 km) 2019/08/16 08:43:32 map
Johannesburg, CA 2.8 83 mi (134 km) 2019/08/16 05:00:27 map
Coso Junction, CA 2.6 140 mi (225 km) 2019/08/16 04:27:27 map
Coso Junction, CA 3.2 134 mi (215 km) 2019/08/15 21:01:27 map
Searles Valley, CA 3.3 106 mi (171 km) 2019/08/15 17:56:14 map
Little Lake, CA 2.5 127 mi (205 km) 2019/08/15 14:27:04 map
Trona, CA 3.0 103 mi (165 km) 2019/08/15 13:44:59 map
Coso Junction, CA 2.6 133 mi (214 km) 2019/08/15 12:22:03 map
Searles Valley, CA 2.6 107 mi (173 km) 2019/08/15 11:49:24 map
Lamont, CA 2.6 91 mi (147 km) 2019/08/15 11:26:11 map
Searles Valley, CA 2.6 107 mi (173 km) 2019/08/15 10:06:37 map
Coso Junction, CA 2.5 133 mi (214 km) 2019/08/15 07:24:33 map
Coso Junction, CA 2.7 133 mi (214 km) 2019/08/15 05:32:40 map
Coso Junction, CA 3.0 133 mi (214 km) 2019/08/15 04:52:31 map
Coso Junction, CA 2.9 133 mi (214 km) 2019/08/15 04:50:55 map
Coso Junction, CA 2.8 133 mi (214 km) 2019/08/15 04:50:40 map
Coso Junction, CA 3.9 133 mi (214 km) 2019/08/15 04:50:24 map
Searles Valley, CA 2.7 106 mi (171 km) 2019/08/14 23:26:23 map
Searles Valley, CA 2.9 113 mi (182 km) 2019/08/14 17:12:49 map
Searles Valley, CA 3.2 129 mi (207 km) 2019/08/14 16:32:45 map
Coso Junction, CA 3.5 133 mi (214 km) 2019/08/14 15:52:26 map
Coso Junction, CA 2.7 133 mi (214 km) 2019/08/14 15:41:26 map
Coso Junction, CA 2.5 133 mi (214 km) 2019/08/14 15:01:11 map
Little Lake, CA 3.8 121 mi (195 km) 2019/08/14 14:04:11 map
Little Lake, CA 2.5 121 mi (195 km) 2019/08/14 03:36:05 map
Little Lake, CA 2.6 121 mi (195 km) 2019/08/14 02:38:50 map
Little Lake, CA 3.6 121 mi (195 km) 2019/08/14 02:34:19 map
Searles Valley, CA 2.5 107 mi (172 km) 2019/08/13 22:00:51 map
Coso Junction, CA 2.8 137 mi (220 km) 2019/08/13 16:30:01 map
Coso Junction, CA 2.8 135 mi (217 km) 2019/08/13 15:53:38 map
Searles Valley, CA 2.5 110 mi (177 km) 2019/08/13 15:18:12 map
Little Lake, CA 2.5 122 mi (197 km) 2019/08/13 08:59:59 map
Ridgecrest, CA 2.5 117 mi (189 km) 2019/08/13 08:14:25 map
Little Lake, CA 2.8 119 mi (192 km) 2019/08/12 16:41:27 map
Ridgecrest, CA 2.8 109 mi (175 km) 2019/08/12 16:12:05 map
Searles Valley, CA 2.5 111 mi (179 km) 2019/08/12 12:36:14 map
Coso Junction, CA 2.7 134 mi (216 km) 2019/08/12 12:20:25 map

Click on location for more details from the USGS.